Time;durP1;ratioP1;P1;durP2;ratioP2;P2;SDS_P1;SDS_P2;PMS_P1;PMS_P2;Temp;Humidity;BMP_temperature;BMP_pressure;BME280_temperature;BME280_humidity;BME280_pressure;Samples;Min_cycle;Max_cycle;Signal;HPM_P1;HPM_P2
2023/05/21 00:02:21;;;;;;;5.45;0.98;;;;;;;;;;5286361;28;20023;-74
2023/05/21 00:04:52;;;;;;;2.35;1.05;;;;;;;;;;5284916;28;20023;-75
2023/05/21 00:07:24;;;;;;;2.07;1.00;;;;;;;;;;5286361;28;20467;-74
2023/05/21 00:09:55;;;;;;;2.30;1.02;;;;;;;;;;5285564;28;20312;-75
2023/05/21 00:12:26;;;;;;;3.60;1.08;;;;;;;;;;5285395;28;20012;-75
2023/05/21 00:14:58;;;;;;;3.30;1.05;;;;;;;;;;5285752;28;20483;-74
2023/05/21 00:17:29;;;;;;;2.25;1.42;;;;;;;;;;5285876;28;20099;-74
2023/05/21 00:20:04;;;;;;;3.77;1.33;;;;;;;;;;5284958;28;20012;-74
2023/05/21 00:22:35;;;;;;;3.15;1.65;;;;;;;;;;5285605;28;20266;-74
2023/05/21 00:25:07;;;;;;;2.67;1.45;;;;;;;;;;5285706;28;20031;-75
2023/05/21 00:27:39;;;;;;;3.50;1.92;;;;;;;;;;5284469;28;20024;-75
2023/05/21 00:30:10;;;;;;;6.47;4.00;;;;;;;;;;5285851;28;20027;-74
2023/05/21 00:32:41;;;;;;;6.75;4.97;;;;;;;;;;5285124;28;20550;-74
2023/05/21 00:35:12;;;;;;;9.15;6.82;;;;;;;;;;5284987;28;20107;-75
2023/05/21 00:37:44;;;;;;;7.53;6.72;;;;;;;;;;5285020;28;20016;-74
2023/05/21 00:40:17;;;;;;;6.53;5.75;;;;;;;;;;5284966;28;20044;-74
2023/05/21 00:42:48;;;;;;;5.68;4.97;;;;;;;;;;5284914;28;20029;-75
2023/05/21 00:45:20;;;;;;;5.05;4.38;;;;;;;;;;5285482;28;20024;-74
2023/05/21 00:47:53;;;;;;;3.63;2.80;;;;;;;;;;5284262;28;20013;-74
2023/05/21 00:50:24;;;;;;;5.03;2.25;;;;;;;;;;5285745;28;20031;-74
2023/05/21 00:52:56;;;;;;;5.03;2.05;;;;;;;;;;5284726;28;20107;-74
2023/05/21 00:55:27;;;;;;;3.15;1.80;;;;;;;;;;5284471;28;20044;-74
2023/05/21 00:57:58;;;;;;;3.40;1.20;;;;;;;;;;5284411;28;20027;-74
2023/05/21 01:00:33;;;;;;;2.57;1.40;;;;;;;;;;5285166;28;20032;-74
2023/05/21 01:03:04;;;;;;;3.53;1.25;;;;;;;;;;5284095;28;20270;-74
2023/05/21 01:05:36;;;;;;;3.28;1.33;;;;;;;;;;5284698;28;20479;-74
2023/05/21 01:08:09;;;;;;;3.08;1.42;;;;;;;;;;5283983;28;20467;-74
2023/05/21 01:10:40;;;;;;;2.95;1.42;;;;;;;;;;5284295;28;20368;-75
2023/05/21 01:13:11;;;;;;;4.90;1.58;;;;;;;;;;5284422;28;20021;-74
2023/05/21 01:15:43;;;;;;;3.97;1.20;;;;;;;;;;5283640;28;20095;-74
2023/05/21 01:18:15;;;;;;;3.30;1.48;;;;;;;;;;5284837;28;20020;-74
2023/05/21 01:20:49;;;;;;;2.95;1.50;;;;;;;;;;5284184;28;20430;-74
2023/05/21 01:23:20;;;;;;;2.30;1.27;;;;;;;;;;5284203;28;20021;-75
2023/05/21 01:25:51;;;;;;;2.80;1.33;;;;;;;;;;5284091;28;20028;-74
2023/05/21 01:28:22;;;;;;;3.27;1.07;;;;;;;;;;5284783;28;20027;-74
2023/05/21 01:30:55;;;;;;;2.10;1.10;;;;;;;;;;5283288;28;20254;-74
2023/05/21 01:33:35;;;;;;;1.92;1.30;;;;;;;;;;5284597;28;20263;-74
2023/05/21 01:36:09;;;;;;;3.97;1.52;;;;;;;;;;5283623;28;20103;-74
2023/05/21 01:38:42;;;;;;;5.75;1.58;;;;;;;;;;5283720;28;20024;-74
2023/05/21 01:41:16;;;;;;;1.98;1.27;;;;;;;;;;5284331;28;20017;-74
2023/05/21 01:43:47;;;;;;;2.58;1.20;;;;;;;;;;5282998;28;20420;-74
2023/05/21 01:46:22;;;;;;;4.57;1.23;;;;;;;;;;5284527;28;20115;-74
2023/05/21 01:48:54;;;;;;;3.28;1.35;;;;;;;;;;5283911;28;20387;-74
2023/05/21 01:51:26;;;;;;;3.03;1.30;;;;;;;;;;5283538;28;20024;-74
2023/05/21 01:53:57;;;;;;;2.88;1.58;;;;;;;;;;5283488;28;20024;-74
2023/05/21 01:56:28;;;;;;;2.58;1.27;;;;;;;;;;5284009;28;20024;-74
2023/05/21 01:58:59;;;;;;;2.20;1.35;;;;;;;;;;5282537;28;20045;-74
2023/05/21 02:01:30;;;;;;;4.38;1.42;;;;;;;;;;5283892;28;20479;-74
2023/05/21 02:04:02;;;;;;;2.15;1.42;;;;;;;;;;5283756;28;20027;-76
2023/05/21 02:06:34;;;;;;;3.67;1.20;;;;;;;;;;5282769;28;20025;-74
2023/05/21 02:09:05;;;;;;;2.47;1.58;;;;;;;;;;5283553;28;20267;-74
2023/05/21 02:11:37;;;;;;;5.10;1.38;;;;;;;;;;5282903;28;20102;-74
2023/05/21 02:14:09;;;;;;;2.65;1.58;;;;;;;;;;5283852;28;20074;-74
2023/05/21 02:16:40;;;;;;;2.80;1.30;;;;;;;;;;5283271;28;20422;-74
2023/05/21 02:19:12;;;;;;;3.20;1.67;;;;;;;;;;5282893;28;20028;-74
2023/05/21 02:21:43;;;;;;;3.30;1.47;;;;;;;;;;5283197;28;20098;-74
2023/05/21 02:24:14;;;;;;;2.33;1.35;;;;;;;;;;5282622;28;20275;-74
2023/05/21 02:26:47;;;;;;;2.13;1.35;;;;;;;;;;5282174;28;20039;-74
2023/05/21 02:29:18;;;;;;;2.60;1.35;;;;;;;;;;5283524;28;20028;-74
2023/05/21 02:31:50;;;;;;;2.80;1.58;;;;;;;;;;5282798;28;20050;-74
2023/05/21 02:34:21;;;;;;;4.10;1.25;;;;;;;;;;5282804;28;20017;-74
2023/05/21 02:36:53;;;;;;;3.13;1.80;;;;;;;;;;5282950;28;20044;-74
2023/05/21 02:39:25;;;;;;;4.00;1.48;;;;;;;;;;5282563;28;20069;-74
2023/05/21 02:41:56;;;;;;;2.30;1.42;;;;;;;;;;5282687;28;20096;-74
2023/05/21 02:44:28;;;;;;;3.70;1.50;;;;;;;;;;5283118;28;20096;-74
2023/05/21 02:46:59;;;;;;;3.90;1.63;;;;;;;;;;5281913;28;20263;-74
2023/05/21 02:49:30;;;;;;;3.95;1.65;;;;;;;;;;5282885;28;20020;-74
2023/05/21 02:52:01;;;;;;;2.50;1.60;;;;;;;;;;5282742;28;20016;-74
2023/05/21 02:54:32;;;;;;;4.47;1.38;;;;;;;;;;5281742;28;20270;-74
2023/05/21 02:57:04;;;;;;;2.20;1.20;;;;;;;;;;5282719;28;20071;-74
2023/05/21 02:59:35;;;;;;;3.05;1.52;;;;;;;;;;5282415;28;20310;-74
2023/05/21 03:02:06;;;;;;;4.05;1.50;;;;;;;;;;5281808;28;20027;-74
2023/05/21 03:04:44;;;;;;;2.07;1.27;;;;;;;;;;5282191;28;20490;-74
2023/05/21 03:07:19;;;;;;;2.87;1.50;;;;;;;;;;5282806;28;20262;-74
2023/05/21 03:09:50;;;;;;;5.25;1.85;;;;;;;;;;5281483;28;20013;-74
2023/05/21 03:12:21;;;;;;;2.30;1.23;;;;;;;;;;5282541;28;20028;-74
2023/05/21 03:14:52;;;;;;;2.95;1.48;;;;;;;;;;5281322;28;20020;-74
2023/05/21 03:17:23;;;;;;;3.90;1.42;;;;;;;;;;5282562;28;20025;-74
2023/05/21 03:19:55;;;;;;;3.25;2.08;;;;;;;;;;5282188;28;20028;-74
2023/05/21 03:22:26;;;;;;;2.00;1.63;;;;;;;;;;5282010;28;20263;-74
2023/05/21 03:24:58;;;;;;;2.78;1.45;;;;;;;;;;5281853;28;20291;-74
2023/05/21 03:27:30;;;;;;;1.80;1.40;;;;;;;;;;5282110;28;20348;-74
2023/05/21 03:30:01;;;;;;;3.83;1.27;;;;;;;;;;5281376;28;20069;-74
2023/05/21 03:32:32;;;;;;;5.33;1.80;;;;;;;;;;5282172;28;20279;-74
2023/05/21 03:35:04;;;;;;;3.65;1.85;;;;;;;;;;5281568;28;20299;-74
2023/05/21 03:37:35;;;;;;;2.63;1.80;;;;;;;;;;5280994;28;20459;-74
2023/05/21 03:40:06;;;;;;;3.13;1.87;;;;;;;;;;5282360;28;20479;-74
2023/05/21 03:42:37;;;;;;;4.45;1.95;;;;;;;;;;5281421;28;20719;-74
2023/05/21 03:45:09;;;;;;;3.67;1.77;;;;;;;;;;5281637;28;20035;-74
2023/05/21 03:47:41;;;;;;;3.72;1.42;;;;;;;;;;5281396;28;20275;-74
2023/05/21 03:50:13;;;;;;;4.18;1.77;;;;;;;;;;5281178;28;20352;-74
2023/05/21 03:52:44;;;;;;;2.88;1.80;;;;;;;;;;5281340;28;20012;-74
2023/05/21 03:55:15;;;;;;;2.67;1.85;;;;;;;;;;5281858;28;20051;-74
2023/05/21 03:57:46;;;;;;;3.65;1.70;;;;;;;;;;5280580;28;20344;-74
2023/05/21 04:00:18;;;;;;;6.00;1.70;;;;;;;;;;5282229;28;20135;-74
2023/05/21 04:02:50;;;;;;;3.58;1.80;;;;;;;;;;5281471;28;20112;-74
2023/05/21 04:05:21;;;;;;;3.58;1.73;;;;;;;;;;5281154;28;20028;-74
2023/05/21 04:07:53;;;;;;;3.42;1.58;;;;;;;;;;5281449;28;20017;-74
2023/05/21 04:10:24;;;;;;;2.50;1.63;;;;;;;;;;5281806;28;20324;-74
2023/05/21 04:12:55;;;;;;;3.83;1.75;;;;;;;;;;5280610;28;20456;-74
2023/05/21 04:15:27;;;;;;;2.67;1.90;;;;;;;;;;5281811;28;20028;-74
2023/05/21 04:17:59;;;;;;;5.68;2.00;;;;;;;;;;5280559;28;20358;-74
2023/05/21 04:20:30;;;;;;;2.60;2.10;;;;;;;;;;5281715;28;20100;-74
2023/05/21 04:23:02;;;;;;;2.80;1.83;;;;;;;;;;5281517;28;20016;-74
2023/05/21 04:25:33;;;;;;;3.70;1.77;;;;;;;;;;5280611;28;20285;-74
2023/05/21 04:28:04;;;;;;;3.97;1.77;;;;;;;;;;5281432;28;20013;-74
2023/05/21 04:30:35;;;;;;;3.70;2.22;;;;;;;;;;5281373;28;20020;-74
2023/05/21 04:33:08;;;;;;;3.47;1.75;;;;;;;;;;5280536;28;20013;-74
2023/05/21 04:35:43;;;;;;;2.78;2.00;;;;;;;;;;5281166;28;20361;-74
2023/05/21 04:38:18;;;;;;;3.38;2.05;;;;;;;;;;5281343;28;20027;-74
2023/05/21 04:40:49;;;;;;;2.65;2.08;;;;;;;;;;5280465;28;20032;-74
2023/05/21 04:43:24;;;;;;;3.50;2.45;;;;;;;;;;5281852;28;20013;-74
2023/05/21 04:45:56;;;;;;;4.15;2.67;;;;;;;;;;5280920;28;20029;-74
2023/05/21 04:48:27;;;;;;;3.42;2.40;;;;;;;;;;5284514;28;20012;-74
2023/05/21 04:50:58;;;;;;;3.53;2.75;;;;;;;;;;5284708;28;20028;-74
2023/05/21 04:53:29;;;;;;;2.90;2.13;;;;;;;;;;5284192;28;20392;-74
2023/05/21 04:56:01;;;;;;;3.77;2.97;;;;;;;;;;5285059;28;20362;-74
2023/05/21 04:58:33;;;;;;;5.15;1.98;;;;;;;;;;5284636;28;20287;-74
2023/05/21 05:01:04;;;;;;;3.87;2.57;;;;;;;;;;5283942;28;20480;-74
2023/05/21 05:03:35;;;;;;;3.92;2.40;;;;;;;;;;5284882;28;20559;-74
2023/05/21 05:06:07;;;;;;;3.47;2.38;;;;;;;;;;5284593;28;20063;-74
2023/05/21 05:08:38;;;;;;;4.07;2.75;;;;;;;;;;5283630;28;20487;-74
2023/05/21 05:11:09;;;;;;;3.42;2.30;;;;;;;;;;5285081;28;20017;-74
2023/05/21 05:13:41;;;;;;;4.85;2.67;;;;;;;;;;5284326;28;20078;-74
2023/05/21 05:16:13;;;;;;;3.63;2.28;;;;;;;;;;5284461;28;20027;-74
2023/05/21 05:18:44;;;;;;;5.18;2.88;;;;;;;;;;5284412;28;20012;-74
2023/05/21 05:21:15;;;;;;;4.15;2.45;;;;;;;;;;5284036;28;20027;-74
2023/05/21 05:23:46;;;;;;;3.85;2.78;;;;;;;;;;5284254;28;20458;-74
2023/05/21 05:26:18;;;;;;;3.37;2.50;;;;;;;;;;5284853;28;20634;-74
2023/05/21 05:28:49;;;;;;;3.92;2.38;;;;;;;;;;5283046;28;20268;-74
2023/05/21 05:31:20;;;;;;;4.00;2.60;;;;;;;;;;5285103;28;20013;-74
2023/05/21 05:33:51;;;;;;;4.15;2.55;;;;;;;;;;5284113;28;20020;-74
2023/05/21 05:36:23;;;;;;;3.03;2.37;;;;;;;;;;5283761;28;20357;-74
2023/05/21 05:38:54;;;;;;;4.70;2.70;;;;;;;;;;5283825;28;20255;-74
2023/05/21 05:41:25;;;;;;;4.18;2.72;;;;;;;;;;5284295;28;20013;-74
2023/05/21 05:43:56;;;;;;;2.70;1.92;;;;;;;;;;5283071;28;20028;-75
2023/05/21 05:46:28;;;;;;;2.97;2.47;;;;;;;;;;5284379;28;20109;-74
2023/05/21 05:48:59;;;;;;;2.83;2.25;;;;;;;;;;5283471;28;20274;-74
2023/05/21 05:51:30;;;;;;;4.15;2.63;;;;;;;;;;5283074;28;20375;-74
2023/05/21 05:54:01;;;;;;;5.45;2.80;;;;;;;;;;5283848;28;20089;-74
2023/05/21 05:56:32;;;;;;;4.22;2.55;;;;;;;;;;5282929;28;20024;-74
2023/05/21 05:59:04;;;;;;;3.78;2.75;;;;;;;;;;5283409;28;20048;-74
2023/05/21 06:01:35;;;;;;;6.38;3.08;;;;;;;;;;5283808;28;20027;-74
2023/05/21 06:04:06;;;;;;;3.60;3.08;;;;;;;;;;5282929;28;20062;-74
2023/05/21 06:06:37;;;;;;;4.50;2.70;;;;;;;;;;5283525;28;20527;-74
2023/05/21 06:09:08;;;;;;;5.43;2.75;;;;;;;;;;5283724;28;20278;-74
2023/05/21 06:11:40;;;;;;;5.43;3.25;;;;;;;;;;5282412;28;20440;-74
2023/05/21 06:14:11;;;;;;;5.13;3.08;;;;;;;;;;5283741;28;20017;-74
2023/05/21 06:16:42;;;;;;;4.40;2.83;;;;;;;;;;5282898;28;20020;-74
2023/05/21 06:19:13;;;;;;;3.58;3.10;;;;;;;;;;5282673;28;20826;-74
2023/05/21 06:21:44;;;;;;;3.05;2.70;;;;;;;;;;5283070;28;20772;-74
2023/05/21 06:24:16;;;;;;;3.10;2.55;;;;;;;;;;5283483;28;20082;-74
2023/05/21 06:26:47;;;;;;;3.57;3.27;;;;;;;;;;5281936;28;20471;-74
2023/05/21 06:29:18;;;;;;;3.77;3.07;;;;;;;;;;5283421;28;20328;-75
2023/05/21 06:31:49;;;;;;;4.30;2.90;;;;;;;;;;5281952;28;20274;-74
2023/05/21 06:34:20;;;;;;;3.67;3.20;;;;;;;;;;5283494;28;20427;-75
2023/05/21 06:36:51;;;;;;;4.93;3.13;;;;;;;;;;5282726;28;20023;-74
2023/05/21 06:39:23;;;;;;;4.63;3.17;;;;;;;;;;5282465;28;20270;-75
2023/05/21 06:41:54;;;;;;;4.38;3.67;;;;;;;;;;5282597;28;20269;-75
2023/05/21 06:44:25;;;;;;;4.60;3.03;;;;;;;;;;5283370;28;20079;-75
2023/05/21 06:46:57;;;;;;;4.40;3.42;;;;;;;;;;5281923;28;20198;-75
2023/05/21 06:49:28;;;;;;;4.97;4.03;;;;;;;;;;5283083;28;20099;-74
2023/05/21 06:52:00;;;;;;;3.47;3.17;;;;;;;;;;5282225;28;20275;-75
2023/05/21 06:54:31;;;;;;;3.78;3.30;;;;;;;;;;5282059;28;20363;-75
2023/05/21 06:57:02;;;;;;;4.00;3.60;;;;;;;;;;5282540;28;20028;-75
2023/05/21 06:59:34;;;;;;;3.92;3.63;;;;;;;;;;5282143;28;20037;-75
2023/05/21 07:02:05;;;;;;;4.10;3.25;;;;;;;;;;5281881;28;20054;-75
2023/05/21 07:04:36;;;;;;;4.80;3.70;;;;;;;;;;5282139;28;20012;-75
2023/05/21 07:07:07;;;;;;;4.80;4.30;;;;;;;;;;5281786;28;20023;-74
2023/05/21 07:09:38;;;;;;;4.90;3.90;;;;;;;;;;5281252;28;20255;-75
2023/05/21 07:12:10;;;;;;;5.43;4.38;;;;;;;;;;5282462;28;20340;-75
2023/05/21 07:14:41;;;;;;;6.18;4.32;;;;;;;;;;5280859;28;20017;-75
2023/05/21 07:17:12;;;;;;;3.73;3.30;;;;;;;;;;5282314;28;20128;-75
2023/05/21 07:19:43;;;;;;;5.68;4.53;;;;;;;;;;5281945;28;20622;-74
2023/05/21 07:22:15;;;;;;;4.30;3.90;;;;;;;;;;5281612;28;20031;-76
2023/05/21 07:24:46;;;;;;;5.33;3.27;;;;;;;;;;5281649;28;20323;-74
2023/05/21 07:27:17;;;;;;;4.57;3.87;;;;;;;;;;5282145;28;20279;-75
2023/05/21 07:29:48;;;;;;;5.05;3.90;;;;;;;;;;5280865;28;20392;-76
2023/05/21 07:32:20;;;;;;;4.70;4.20;;;;;;;;;;5282111;28;20099;-75
2023/05/21 07:34:51;;;;;;;5.88;4.45;;;;;;;;;;5280955;28;20069;-74
2023/05/21 07:37:24;;;;;;;5.13;4.63;;;;;;;;;;5282198;28;20016;-75
2023/05/21 07:39:56;;;;;;;5.60;3.88;;;;;;;;;;5281258;28;20069;-75
2023/05/21 07:42:27;;;;;;;5.22;4.32;;;;;;;;;;5281271;28;20012;-75
2023/05/21 07:44:59;;;;;;;6.10;4.45;;;;;;;;;;5281145;28;20486;-75
2023/05/21 07:47:30;;;;;;;5.68;4.20;;;;;;;;;;5281769;28;20097;-75
2023/05/21 07:50:01;;;;;;;4.85;4.22;;;;;;;;;;5280745;28;20062;-76
2023/05/21 07:52:32;;;;;;;6.20;4.33;;;;;;;;;;5281651;28;20029;-74
2023/05/21 07:55:04;;;;;;;4.67;3.97;;;;;;;;;;5281777;28;20317;-75
2023/05/21 07:57:35;;;;;;;6.45;5.05;;;;;;;;;;5281028;28;20277;-75
2023/05/21 08:00:12;;;;;;;4.45;3.88;;;;;;;;;;5281056;28;20140;-75
2023/05/21 08:02:44;;;;;;;5.38;3.95;;;;;;;;;;5281191;28;20055;-75
2023/05/21 08:05:15;;;;;;;5.43;3.55;;;;;;;;;;5281034;28;20479;-75
2023/05/21 08:07:46;;;;;;;4.63;4.23;;;;;;;;;;5281422;28;20012;-75
2023/05/21 08:10:17;;;;;;;6.67;4.37;;;;;;;;;;5281026;28;20312;-75
2023/05/21 08:12:48;;;;;;;7.37;4.60;;;;;;;;;;5281127;28;20306;-75
2023/05/21 08:15:20;;;;;;;6.20;4.57;;;;;;;;;;5281508;28;20357;-75
2023/05/21 08:17:51;;;;;;;6.93;5.07;;;;;;;;;;5280015;28;20262;-75
2023/05/21 08:20:22;;;;;;;4.72;4.22;;;;;;;;;;5281611;28;20720;-75
2023/05/21 08:22:53;;;;;;;6.00;4.53;;;;;;;;;;5283967;28;20613;-75
2023/05/21 08:25:27;;;;;;;6.50;4.38;;;;;;;;;;5284850;28;20362;-75
2023/05/21 08:27:59;;;;;;;5.18;4.50;;;;;;;;;;5284858;28;20025;-74
2023/05/21 08:30:30;;;;;;;6.07;4.40;;;;;;;;;;5285497;28;20020;-76
2023/05/21 08:33:01;;;;;;;5.77;4.80;;;;;;;;;;5284580;28;20066;-75
2023/05/21 08:35:32;;;;;;;4.53;3.70;;;;;;;;;;5285287;28;20753;-75
2023/05/21 08:38:04;;;;;;;5.33;4.30;;;;;;;;;;5284708;28;20142;-75
2023/05/21 08:40:35;;;;;;;5.03;4.28;;;;;;;;;;5284874;28;20327;-74
2023/05/21 08:43:06;;;;;;;5.53;4.55;;;;;;;;;;5285210;28;20044;-75
2023/05/21 08:45:41;;;;;;;5.25;4.65;;;;;;;;;;5283807;28;20111;-75
2023/05/21 08:48:15;;;;;;;5.45;4.20;;;;;;;;;;5285218;28;20013;-75
2023/05/21 08:50:46;;;;;;;6.47;4.45;;;;;;;;;;5284616;28;20024;-76
2023/05/21 08:53:17;;;;;;;5.07;4.15;;;;;;;;;;5284671;28;20065;-76
2023/05/21 08:55:50;;;;;;;4.90;4.20;;;;;;;;;;5284485;28;20039;-75
2023/05/21 08:58:22;;;;;;;4.32;3.80;;;;;;;;;;5284979;28;20290;-76
2023/05/21 09:00:53;;;;;;;5.05;3.90;;;;;;;;;;5283496;28;20016;-76
2023/05/21 09:03:25;;;;;;;6.78;3.72;;;;;;;;;;5284946;28;20070;-76
2023/05/21 09:05:56;;;;;;;4.85;4.10;;;;;;;;;;5284615;28;20400;-74
2023/05/21 09:08:33;;;;;;;3.60;3.22;;;;;;;;;;5284283;28;20099;-74
2023/05/21 09:11:04;;;;;;;5.05;3.55;;;;;;;;;;5284580;28;20024;-75
2023/05/21 09:13:36;;;;;;;4.13;3.70;;;;;;;;;;5283652;28;20013;-75
2023/05/21 09:16:08;;;;;;;5.28;3.63;;;;;;;;;;5273040;28;20416;-75
2023/05/21 09:18:39;;;;;;;4.82;3.22;;;;;;;;;;5283725;28;20032;-76
2023/05/21 09:21:36;;;;;;;6.00;3.37;;;;;;;;;;5283514;28;20024;-75
2023/05/21 09:24:08;;;;;;;3.77;3.13;;;;;;;;;;5281755;28;20025;-75
2023/05/21 09:26:42;;;;;;;3.85;3.00;;;;;;;;;;5283006;28;20044;-76
2023/05/21 09:29:13;;;;;;;3.95;3.03;;;;;;;;;;5283747;28;20348;-76
2023/05/21 09:31:45;;;;;;;3.43;2.93;;;;;;;;;;5270818;28;20032;-76
2023/05/21 09:34:16;;;;;;;3.30;2.60;;;;;;;;;;5262090;28;20043;-76
2023/05/21 09:36:47;;;;;;;5.32;3.58;;;;;;;;;;5262712;28;20032;-76
2023/05/21 09:39:32;;;;;;;4.38;3.33;;;;;;;;;;5283029;28;20028;-76
2023/05/21 09:42:03;;;;;;;3.58;3.25;;;;;;;;;;5282093;28;20475;-76
2023/05/21 09:44:34;;;;;;;3.97;3.60;;;;;;;;;;5282361;28;20025;-77
2023/05/21 09:47:08;;;;;;;5.03;3.90;;;;;;;;;;5282883;28;20024;-76
2023/05/21 09:49:42;;;;;;;3.92;3.60;;;;;;;;;;5281894;28;20073;-77
2023/05/21 09:52:21;;;;;;;4.53;3.75;;;;;;;;;;5282853;28;20058;-76
2023/05/21 09:54:52;;;;;;;4.85;3.08;;;;;;;;;;5282427;28;20345;-77
2023/05/21 09:57:24;;;;;;;4.80;3.55;;;;;;;;;;5282404;28;20066;-77
2023/05/21 09:59:55;;;;;;;4.55;2.92;;;;;;;;;;5281775;28;20104;-77
2023/05/21 10:02:27;;;;;;;6.03;4.13;;;;;;;;;;5282756;28;20048;-76
2023/05/21 10:04:59;;;;;;;3.83;3.33;;;;;;;;;;5281870;28;20289;-76
2023/05/21 10:07:31;;;;;;;4.30;3.40;;;;;;;;;;5282964;28;20025;-77
2023/05/21 10:10:03;;;;;;;5.05;3.70;;;;;;;;;;5282645;28;20077;-77
2023/05/21 10:12:35;;;;;;;4.85;3.85;;;;;;;;;;5283607;28;20024;-77
2023/05/21 10:15:08;;;;;;;4.05;3.45;;;;;;;;;;5283290;28;20029;-75
2023/05/21 10:17:39;;;;;;;4.53;3.70;;;;;;;;;;5280941;28;20467;-76
2023/05/21 10:20:11;;;;;;;4.55;3.65;;;;;;;;;;5283417;28;20076;-76
2023/05/21 10:22:43;;;;;;;6.18;4.25;;;;;;;;;;5282801;28;20017;-76
2023/05/21 10:25:14;;;;;;;7.82;4.63;;;;;;;;;;5282172;28;20040;-80
2023/05/21 10:27:45;;;;;;;5.15;3.65;;;;;;;;;;5282481;28;20383;-77
2023/05/21 10:30:17;;;;;;;5.25;4.70;;;;;;;;;;5282946;28;20035;-77
2023/05/21 10:32:48;;;;;;;7.40;5.32;;;;;;;;;;5280254;28;20495;-77
2023/05/21 10:35:20;;;;;;;6.43;4.13;;;;;;;;;;5281246;28;20024;-77
2023/05/21 10:37:51;;;;;;;5.35;4.07;;;;;;;;;;5279754;28;20020;-77
2023/05/21 10:40:22;;;;;;;5.28;4.65;;;;;;;;;;5281013;28;20055;-77
2023/05/21 10:43:13;;;;;;;5.68;4.68;;;;;;;;;;5280278;28;20103;-77
2023/05/21 10:45:56;;;;;;;7.03;5.47;;;;;;;;;;5278630;28;20032;-77
2023/05/21 10:48:34;;;;;;;5.82;5.25;;;;;;;;;;5282111;28;20012;-77
2023/05/21 10:51:11;;;;;;;6.88;6.18;;;;;;;;;;5282459;28;20424;-77
2023/05/21 10:53:51;;;;;;;8.02;5.47;;;;;;;;;;5281473;28;20421;-77
2023/05/21 10:56:28;;;;;;;5.47;4.95;;;;;;;;;;5282930;28;20032;-77
2023/05/21 10:59:08;;;;;;;6.50;5.80;;;;;;;;;;5281459;28;20060;-76
2023/05/21 11:01:40;;;;;;;8.57;6.13;;;;;;;;;;5281938;28;20487;-77
2023/05/21 11:04:14;;;;;;;8.00;6.28;;;;;;;;;;5282710;28;20078;-77
2023/05/21 11:06:46;;;;;;;9.57;5.95;;;;;;;;;;5281402;28;20024;-77
2023/05/21 11:09:17;;;;;;;7.63;6.38;;;;;;;;;;5282628;28;20024;-77
2023/05/21 11:11:49;;;;;;;8.32;7.45;;;;;;;;;;5281933;28;20024;-77
2023/05/21 11:14:34;;;;;;;6.57;5.97;;;;;;;;;;5281664;28;20363;-77
2023/05/21 11:17:09;;;;;;;8.18;6.65;;;;;;;;;;5282225;28;20468;-77
2023/05/21 11:19:47;;;;;;;7.40;6.63;;;;;;;;;;5281859;28;20048;-77
2023/05/21 11:22:18;;;;;;;8.13;6.23;;;;;;;;;;5281805;28;20421;-77
2023/05/21 11:24:50;;;;;;;6.32;5.60;;;;;;;;;;5281689;28;20263;-77
2023/05/21 11:27:40;;;;;;;9.48;7.15;;;;;;;;;;5281425;28;20021;-77
2023/05/21 11:30:18;;;;;;;7.53;6.68;;;;;;;;;;5282164;28;20012;-76
2023/05/21 11:33:08;;;;;;;7.88;5.50;;;;;;;;;;5281666;28;20513;-77
2023/05/21 11:35:48;;;;;;;7.18;6.25;;;;;;;;;;5280536;28;20039;-76
2023/05/21 11:38:20;;;;;;;8.50;7.10;;;;;;;;;;5282309;28;20103;-77
2023/05/21 11:40:53;;;;;;;7.70;7.00;;;;;;;;;;5281572;28;20099;-75
2023/05/21 11:43:25;;;;;;;10.00;8.52;;;;;;;;;;5281283;28;20027;-75
2023/05/21 11:45:57;;;;;;;8.57;6.80;;;;;;;;;;5281245;28;20032;-75
2023/05/21 11:48:29;;;;;;;12.82;8.63;;;;;;;;;;5281101;28;20021;-75
2023/05/21 11:51:01;;;;;;;8.02;7.32;;;;;;;;;;5281820;28;20025;-75
2023/05/21 11:53:32;;;;;;;9.48;8.15;;;;;;;;;;5281634;28;20050;-75
2023/05/21 11:56:03;;;;;;;9.67;8.67;;;;;;;;;;5280492;28;20024;-75
2023/05/21 11:58:34;;;;;;;10.27;9.02;;;;;;;;;;5281384;28;20776;-75
2023/05/21 12:01:05;;;;;;;9.63;8.30;;;;;;;;;;5281729;28;20024;-75
2023/05/21 12:03:37;;;;;;;12.00;10.20;;;;;;;;;;5280800;28;20044;-75
2023/05/21 12:06:08;;;;;;;8.90;8.10;;;;;;;;;;5281476;28;20033;-75
2023/05/21 12:08:39;;;;;;;10.27;9.27;;;;;;;;;;5281012;28;20645;-75
2023/05/21 12:11:10;;;;;;;12.37;9.40;;;;;;;;;;5281163;28;20035;-75
2023/05/21 12:13:42;;;;;;;9.17;8.33;;;;;;;;;;5281061;28;20019;-75
2023/05/21 12:16:13;;;;;;;8.38;7.45;;;;;;;;;;5280957;28;20661;-75
2023/05/21 12:18:45;;;;;;;9.47;8.60;;;;;;;;;;5281132;28;20024;-75
2023/05/21 12:21:16;;;;;;;11.18;8.70;;;;;;;;;;5281503;28;20278;-75
2023/05/21 12:23:47;;;;;;;11.20;9.30;;;;;;;;;;5280488;28;20021;-75
2023/05/21 12:26:18;;;;;;;10.20;9.20;;;;;;;;;;5281653;28;20302;-75
2023/05/21 12:28:51;;;;;;;10.20;9.20;;;;;;;;;;5281089;28;20033;-75
2023/05/21 12:31:22;;;;;;;10.80;9.75;;;;;;;;;;5280621;28;20310;-75
2023/05/21 12:33:53;;;;;;;10.10;9.20;;;;;;;;;;5280692;28;20047;-75
2023/05/21 12:36:25;;;;;;;11.27;10.07;;;;;;;;;;5281659;28;20028;-75
2023/05/21 12:38:56;;;;;;;10.10;9.20;;;;;;;;;;5280292;28;20066;-75
2023/05/21 12:41:28;;;;;;;10.75;9.50;;;;;;;;;;5281253;28;20017;-75
2023/05/21 12:43:59;;;;;;;11.32;9.00;;;;;;;;;;5280656;28;20486;-75
2023/05/21 12:46:30;;;;;;;10.53;9.53;;;;;;;;;;5280285;28;20455;-75
2023/05/21 12:49:02;;;;;;;10.07;9.07;;;;;;;;;;5281158;28;20279;-75
2023/05/21 12:51:36;;;;;;;10.18;9.18;;;;;;;;;;5280312;28;20720;-75
2023/05/21 12:54:11;;;;;;;9.00;8.10;;;;;;;;;;5281142;28;20017;-75
2023/05/21 12:56:43;;;;;;;9.77;8.63;;;;;;;;;;5280783;28;20013;-75
2023/05/21 12:59:14;;;;;;;10.10;8.60;;;;;;;;;;5280183;28;20049;-75
2023/05/21 13:01:48;;;;;;;9.13;8.25;;;;;;;;;;5280898;28;20511;-77
2023/05/21 13:04:20;;;;;;;9.40;8.60;;;;;;;;;;5281169;28;20082;-75
2023/05/21 13:06:51;;;;;;;13.80;9.43;;;;;;;;;;5279773;28;20418;-75
2023/05/21 13:09:22;;;;;;;10.63;9.52;;;;;;;;;;5284345;28;20379;-76
2023/05/21 13:11:53;;;;;;;9.53;8.33;;;;;;;;;;5284595;28;20414;-76
2023/05/21 13:14:24;;;;;;;11.67;8.60;;;;;;;;;;5284145;28;20028;-76
2023/05/21 13:16:56;;;;;;;9.70;8.70;;;;;;;;;;5284189;28;20263;-76
2023/05/21 13:19:27;;;;;;;9.35;8.45;;;;;;;;;;5283946;28;20017;-76
2023/05/21 13:21:58;;;;;;;9.15;7.88;;;;;;;;;;5284252;28;20364;-76
2023/05/21 13:24:29;;;;;;;9.70;7.93;;;;;;;;;;5284684;28;20016;-75
2023/05/21 13:27:01;;;;;;;9.18;8.02;;;;;;;;;;5283718;28;20298;-76
2023/05/21 13:29:33;;;;;;;10.27;8.80;;;;;;;;;;5284217;28;20082;-76
2023/05/21 13:32:04;;;;;;;9.52;8.55;;;;;;;;;;5284221;28;20494;-75
2023/05/21 13:34:35;;;;;;;8.75;7.95;;;;;;;;;;5283680;28;20031;-76
2023/05/21 13:37:06;;;;;;;11.17;8.80;;;;;;;;;;5284320;28;20005;-75
2023/05/21 13:39:38;;;;;;;10.30;9.27;;;;;;;;;;5283889;28;20286;-75
2023/05/21 13:42:09;;;;;;;9.93;8.93;;;;;;;;;;5283716;28;20024;-76
2023/05/21 13:44:40;;;;;;;8.73;7.83;;;;;;;;;;5283448;28;20020;-76
2023/05/21 13:47:11;;;;;;;11.53;7.70;;;;;;;;;;5284036;28;20379;-76
2023/05/21 13:49:42;;;;;;;10.73;8.55;;;;;;;;;;5282784;28;20613;-75
2023/05/21 13:52:14;;;;;;;9.00;8.10;;;;;;;;;;5284123;28;20020;-76
2023/05/21 13:54:45;;;;;;;8.40;7.55;;;;;;;;;;5282889;28;20681;-76
2023/05/21 13:57:16;;;;;;;10.17;8.67;;;;;;;;;;5283991;28;20031;-76
2023/05/21 13:59:49;;;;;;;9.23;8.43;;;;;;;;;;5283273;28;20040;-76
2023/05/21 14:02:20;;;;;;;11.32;9.07;;;;;;;;;;5283254;28;20430;-76
2023/05/21 14:04:51;;;;;;;8.87;7.97;;;;;;;;;;5283122;28;20017;-76
2023/05/21 14:07:22;;;;;;;9.03;8.17;;;;;;;;;;5283821;28;20103;-76
2023/05/21 14:09:54;;;;;;;7.53;6.73;;;;;;;;;;5282571;28;20349;-76
2023/05/21 14:12:27;;;;;;;10.15;7.20;;;;;;;;;;5283616;28;20029;-76
2023/05/21 14:14:58;;;;;;;8.07;6.85;;;;;;;;;;5282973;28;20135;-76
2023/05/21 14:17:29;;;;;;;8.17;7.40;;;;;;;;;;5282377;28;20383;-76
2023/05/21 14:20:00;;;;;;;9.10;8.20;;;;;;;;;;5283122;28;20063;-76
2023/05/21 14:22:31;;;;;;;9.70;8.68;;;;;;;;;;5283400;28;20357;-76
2023/05/21 14:25:03;;;;;;;9.67;7.67;;;;;;;;;;5282368;28;20021;-76
2023/05/21 14:27:36;;;;;;;9.93;7.80;;;;;;;;;;5283008;28;20102;-75
2023/05/21 14:30:08;;;;;;;8.40;7.68;;;;;;;;;;5282310;28;20024;-76
2023/05/21 14:32:39;;;;;;;10.13;7.45;;;;;;;;;;5282581;28;20028;-76
2023/05/21 14:35:10;;;;;;;8.93;8.00;;;;;;;;;;5283034;28;20084;-76
2023/05/21 14:37:41;;;;;;;9.20;7.77;;;;;;;;;;5281932;28;20520;-76
2023/05/21 14:40:12;;;;;;;8.97;8.07;;;;;;;;;;5283434;28;20043;-75
2023/05/21 14:42:44;;;;;;;11.00;7.68;;;;;;;;;;5282456;28;20302;-75
2023/05/21 14:45:15;;;;;;;9.18;7.32;;;;;;;;;;5282002;28;20038;-76
2023/05/21 14:47:46;;;;;;;7.95;7.20;;;;;;;;;;5282651;28;20024;-76
2023/05/21 14:50:17;;;;;;;8.32;7.53;;;;;;;;;;5283006;28;20020;-76
2023/05/21 14:52:48;;;;;;;10.77;7.72;;;;;;;;;;5281750;28;20051;-76
2023/05/21 14:55:21;;;;;;;8.13;7.22;;;;;;;;;;5282770;28;20078;-76
2023/05/21 14:57:52;;;;;;;7.25;6.63;;;;;;;;;;5281480;28;20052;-75
2023/05/21 15:00:23;;;;;;;8.05;7.22;;;;;;;;;;5282209;28;20063;-76
2023/05/21 15:02:55;;;;;;;8.75;7.57;;;;;;;;;;5282260;28;20356;-76
2023/05/21 15:05:26;;;;;;;8.85;7.82;;;;;;;;;;5281807;28;20020;-76
2023/05/21 15:07:58;;;;;;;8.20;7.28;;;;;;;;;;5281979;28;20881;-76
2023/05/21 15:10:29;;;;;;;8.00;6.80;;;;;;;;;;5282474;28;20456;-75